Time;durP1;ratioP1;P1;durP2;ratioP2;P2;SDS_P1;SDS_P2;PMS_P1;PMS_P2;Temp;Humidity;BMP_temperature;BMP_pressure;BME280_temperature;BME280_humidity;BME280_pressure;Samples;Min_cycle;Max_cycle;Signal;HPM_P1;HPM_P2
2022/04/19 00:00:42;;;;;;;6.78;3.38;;;;;;;11.83;51.68;101595.63;4995223;28;96975;-34
2022/04/19 00:03:09;;;;;;;5.55;3.22;;;;;;;11.73;51.41;101588.97;4993222;28;101144;-34
2022/04/19 00:05:38;;;;;;;6.00;3.50;;;;;;;11.66;49.97;101585.69;4992994;28;100746;-35
2022/04/19 00:08:04;;;;;;;7.88;3.63;;;;;;;11.68;51.19;101596.47;4993167;28;96951;-34
2022/04/19 00:10:30;;;;;;;6.32;3.08;;;;;;;11.61;50.44;101593.22;4993468;28;96872;-34
2022/04/19 00:12:57;;;;;;;6.43;3.50;;;;;;;11.53;51.48;101583.72;4994396;28;98019;-34
2022/04/19 00:15:24;;;;;;;5.80;2.95;;;;;;;11.58;51.70;101590.66;4992887;28;100991;-34
2022/04/19 00:17:50;;;;;;;7.13;3.65;;;;;;;11.46;51.98;101575.03;4992871;28;96682;-34
2022/04/19 00:20:15;;;;;;;6.38;3.25;;;;;;;11.45;51.63;101576.00;4993143;28;96806;-34
2022/04/19 00:22:41;;;;;;;8.15;3.55;;;;;;;11.40;50.94;101581.69;4994060;28;99609;-34
2022/04/19 00:25:07;;;;;;;6.90;3.58;;;;;;;11.35;52.51;101566.63;4994652;28;97554;-34
2022/04/19 00:27:33;;;;;;;7.32;3.13;;;;;;;11.34;51.15;101565.72;4993156;28;96607;-34
2022/04/19 00:29:59;;;;;;;6.50;3.47;;;;;;;11.32;52.35;101573.09;4993092;28;96851;-34
2022/04/19 00:32:24;;;;;;;5.15;3.13;;;;;;;11.28;52.21;101579.63;4995742;28;98950;-34
2022/04/19 00:34:51;;;;;;;5.57;3.08;;;;;;;11.31;51.93;101579.44;4998060;28;97809;-34
2022/04/19 00:37:17;;;;;;;6.97;3.30;;;;;;;11.27;51.87;101575.13;4996528;28;96587;-34
2022/04/19 00:39:42;;;;;;;5.72;3.03;;;;;;;11.17;52.86;101566.59;4997987;28;96614;-34
2022/04/19 00:42:08;;;;;;;7.75;3.78;;;;;;;11.18;52.59;101570.22;4996285;28;126232;-34
2022/04/19 00:44:37;;;;;;;5.82;3.30;;;;;;;11.14;54.08;101560.50;4995582;28;124113;-34
2022/04/19 00:47:07;;;;;;;5.68;3.30;;;;;;;11.13;53.99;101569.56;4996512;28;96690;-34
2022/04/19 00:49:35;;;;;;;6.90;3.60;;;;;;;11.04;54.24;101560.09;4996232;28;96825;-34
2022/04/19 00:52:01;;;;;;;5.40;3.13;;;;;;;10.95;52.71;101555.16;4996034;28;101249;-34
2022/04/19 00:54:29;;;;;;;6.30;3.40;;;;;;;10.97;52.66;101559.53;4996014;28;99656;-34
2022/04/19 00:56:55;;;;;;;5.57;2.95;;;;;;;10.91;55.49;101554.41;4996223;28;96603;-34
2022/04/19 00:59:22;;;;;;;5.53;3.28;;;;;;;10.94;54.52;101565.13;4998053;28;96749;-34
2022/04/19 01:01:47;;;;;;;6.93;3.55;;;;;;;10.88;56.39;101554.56;4995474;28;100908;-34
2022/04/19 01:04:12;;;;;;;8.63;3.75;;;;;;;10.93;55.24;101562.47;4997274;28;97750;-34
2022/04/19 01:06:38;;;;;;;6.38;3.63;;;;;;;10.87;55.40;101555.53;4996808;28;96788;-34
2022/04/19 01:09:03;;;;;;;5.35;3.45;;;;;;;10.86;53.66;101558.31;4997591;28;98858;-34
2022/04/19 01:14:13;;;;;;;6.00;3.47;;;;;;;10.76;54.24;101553.38;4995800;28;97078;-34
2022/04/19 01:16:40;;;;;;;6.68;3.60;;;;;;;10.71;53.88;101543.72;4997212;28;96635;-34
2022/04/19 01:19:14;;;;;;;7.82;3.35;;;;;;;10.72;55.11;101546.34;4997471;28;96780;-34
2022/04/19 01:21:43;;;;;;;7.55;3.38;;;;;;;10.71;54.71;101557.28;4995687;28;100716;-34
2022/04/19 01:24:13;;;;;;;7.68;4.20;;;;;;;10.62;55.11;101542.34;4997203;28;99431;-34
2022/04/19 01:26:38;;;;;;;5.50;3.25;;;;;;;10.65;53.78;101538.63;4995791;28;96575;-34
2022/04/19 01:29:03;;;;;;;5.70;3.40;;;;;;;10.58;55.07;101535.34;4996548;28;116511;-34
2022/04/19 01:31:28;;;;;;;6.43;3.08;;;;;;;10.64;55.24;101545.88;4995852;28;127501;-34
2022/04/19 01:33:56;;;;;;;7.03;3.22;;;;;;;10.61;55.51;101546.03;4996322;28;109529;-34
2022/04/19 01:36:21;;;;;;;7.45;3.40;;;;;;;10.53;56.08;101540.09;4996944;28;96541;-34
2022/04/19 01:38:48;;;;;;;7.40;3.40;;;;;;;10.47;55.67;101535.88;4996134;28;110624;-34
2022/04/19 01:41:13;;;;;;;5.75;3.20;;;;;;;10.50;56.58;101546.56;4995434;28;99850;-34
2022/04/19 01:43:38;;;;;;;7.50;3.60;;;;;;;10.43;57.38;101534.28;4996081;28;97441;-34
2022/04/19 01:46:04;;;;;;;5.88;2.85;;;;;;;10.46;56.54;101542.25;4996803;28;98048;-34
2022/04/19 01:48:29;;;;;;;6.53;3.88;;;;;;;10.39;56.61;101543.50;4997333;28;96793;-34
2022/04/19 01:50:55;;;;;;;7.03;3.20;;;;;;;10.32;56.15;101533.94;4995942;28;126164;-34
2022/04/19 01:53:20;;;;;;;5.05;3.00;;;;;;;10.30;57.93;101530.44;4996551;28;97768;-34
2022/04/19 01:55:46;;;;;;;6.60;3.70;;;;;;;10.28;57.80;101529.59;4995445;28;117937;-34
2022/04/19 01:58:12;;;;;;;7.78;3.70;;;;;;;10.26;57.98;101523.38;4996429;28;96800;-34
2022/04/19 02:00:37;;;;;;;6.70;3.10;;;;;;;10.29;56.19;101539.50;4996208;28;100425;-34
2022/04/19 02:03:03;;;;;;;8.18;3.70;;;;;;;10.26;58.21;101529.66;4996203;28;99145;-34
2022/04/19 02:05:28;;;;;;;6.53;3.40;;;;;;;10.23;58.20;101540.66;4996829;28;96506;-34
2022/04/19 02:07:53;;;;;;;8.25;4.00;;;;;;;10.16;58.83;101531.97;4996470;28;96782;-34
2022/04/19 02:10:20;;;;;;;6.45;3.28;;;;;;;10.13;58.35;101523.09;4994646;28;127449;-34
2022/04/19 02:12:46;;;;;;;8.68;4.18;;;;;;;10.06;57.82;101522.53;4994968;28;100879;-34
2022/04/19 02:15:14;;;;;;;5.95;3.40;;;;;;;10.09;57.70;101529.63;4994989;28;96540;-34
2022/04/19 02:17:44;;;;;;;6.70;3.58;;;;;;;10.07;58.01;101529.69;4994998;28;96803;-34
2022/04/19 02:20:10;;;;;;;8.07;4.32;;;;;;;10.06;57.22;101517.13;4994307;28;100822;-34
2022/04/19 02:22:36;;;;;;;7.20;3.85;;;;;;;10.16;57.76;101534.66;4977997;28;101696;-34
2022/04/19 02:25:02;;;;;;;7.32;3.67;;;;;;;10.16;58.99;101526.53;4996470;28;96617;-34
2022/04/19 02:27:31;;;;;;;7.00;3.83;;;;;;;10.21;58.17;101524.47;4994850;28;96887;-34
2022/04/19 02:29:56;;;;;;;7.93;4.00;;;;;;;10.21;57.64;101527.19;4995750;28;99132;-34
2022/04/19 02:32:23;;;;;;;7.13;3.70;;;;;;;10.16;57.24;101515.72;4995618;28;99161;-34
2022/04/19 02:34:52;;;;;;;7.95;4.38;;;;;;;10.23;57.95;101524.41;4994787;28;96817;-34
2022/04/19 02:37:17;;;;;;;7.72;4.50;;;;;;;10.20;56.89;101516.41;4995221;28;96848;-34
2022/04/19 02:39:42;;;;;;;9.13;4.45;;;;;;;10.23;58.07;101523.53;4995912;28;96923;-34
2022/04/19 02:42:08;;;;;;;7.28;4.00;;;;;;;10.23;58.57;101515.41;4995658;28;97473;-34
2022/04/19 02:44:34;;;;;;;6.22;3.92;;;;;;;10.18;57.91;101519.22;4995301;28;96998;-34
2022/04/19 02:47:02;;;;;;;7.00;3.90;;;;;;;10.29;59.44;101531.38;4995917;28;96880;-34
2022/04/19 02:49:28;;;;;;;6.15;3.53;;;;;;;10.19;59.40;101523.66;4995521;28;99504;-34
2022/04/19 02:51:55;;;;;;;7.78;4.22;;;;;;;10.27;58.70;101526.00;4995501;28;99072;-34
2022/04/19 02:54:20;;;;;;;7.07;4.10;;;;;;;10.22;58.00;101522.66;4993423;28;96621;-34
2022/04/19 02:56:45;;;;;;;4.97;3.10;;;;;;;10.26;59.09;101540.50;4996083;28;96807;-34
2022/04/19 02:59:11;;;;;;;9.15;4.18;;;;;;;10.17;60.17;101522.88;4994482;28;126314;-34
2022/04/19 03:01:36;;;;;;;5.88;3.58;;;;;;;10.19;59.29;101529.09;4996137;28;97906;-34
2022/04/19 03:04:01;;;;;;;6.72;3.70;;;;;;;10.23;58.41;101523.53;4995937;28;96583;-34
2022/04/19 03:06:27;;;;;;;4.75;2.88;;;;;;;10.17;58.49;101525.56;4995511;28;97520;-34
2022/04/19 03:08:52;;;;;;;7.43;3.65;;;;;;;10.12;58.97;101518.63;4995117;28;97920;-34
2022/04/19 03:11:17;;;;;;;8.70;4.30;;;;;;;10.11;59.14;101523.19;4994509;28;97646;-34
2022/04/19 03:13:43;;;;;;;9.13;4.13;;;;;;;10.05;59.89;101515.34;4995535;28;97954;-34
2022/04/19 03:16:13;;;;;;;8.60;4.40;;;;;;;9.99;58.81;101511.13;4995596;28;96720;-34
2022/04/19 03:18:38;;;;;;;9.23;3.55;;;;;;;10.03;59.76;101521.78;4993758;28;100821;-34
2022/04/19 03:21:04;;;;;;;11.43;4.60;;;;;;;9.94;61.49;101525.84;4995368;28;98050;-34
2022/04/19 03:28:57;;;;;;;7.93;3.75;;;;;;;9.83;61.74;101514.66;4995221;28;96592;-34
2022/04/19 03:31:22;;;;;;;10.88;4.03;;;;;;;9.79;61.65;101524.72;4995138;28;97767;-34
2022/04/19 03:33:51;;;;;;;7.95;4.00;;;;;;;9.69;61.35;101505.34;4994767;28;96627;-34
2022/04/19 03:36:16;;;;;;;6.30;3.72;;;;;;;9.72;61.15;101518.72;4993766;28;97432;-34
2022/04/19 03:38:43;;;;;;;8.73;3.78;;;;;;;9.77;60.37;101523.91;4994756;28;99121;-34
2022/04/19 03:41:09;;;;;;;7.57;4.15;;;;;;;9.67;61.67;101518.06;4994785;28;99281;-34
2022/04/19 03:43:43;;;;;;;5.60;2.97;;;;;;;9.64;61.92;101514.63;4995303;28;96542;-34
2022/04/19 03:46:09;;;;;;;6.28;3.35;;;;;;;9.56;60.92;101504.19;4994940;28;96895;-34
2022/04/19 03:48:34;;;;;;;8.95;3.85;;;;;;;9.59;61.43;101512.16;4994361;28;99309;-34
2022/04/19 03:51:00;;;;;;;10.95;3.97;;;;;;;9.51;61.75;101503.50;4995283;28;97625;-34
2022/04/19 03:53:25;;;;;;;7.63;4.18;;;;;;;9.51;62.12;101506.19;4995207;28;96457;-34
2022/04/19 03:55:50;;;;;;;7.22;3.63;;;;;;;9.37;62.28;101504.16;4994140;28;116562;-34
2022/04/19 03:58:16;;;;;;;6.82;3.88;;;;;;;9.41;62.51;101519.28;4992962;28;129159;-34
2022/04/19 04:00:41;;;;;;;7.03;4.05;;;;;;;9.40;62.59;101517.53;4994302;28;97832;-34
2022/04/19 04:03:07;;;;;;;8.07;3.72;;;;;;;9.35;62.19;101514.16;4994035;28;116884;-34
2022/04/19 04:05:32;;;;;;;10.00;3.75;;;;;;;9.32;61.10;101508.91;4994505;28;96772;-34
2022/04/19 04:07:58;;;;;;;8.15;3.83;;;;;;;9.31;62.55;101504.44;4994419;28;97826;-34
2022/04/19 04:10:24;;;;;;;4.13;3.08;;;;;;;9.27;61.33;101509.13;4994028;28;97315;-34
2022/04/19 04:12:50;;;;;;;6.97;3.22;;;;;;;9.28;63.31;101518.09;4993421;28;96608;-34
2022/04/19 04:15:15;;;;;;;5.32;2.88;;;;;;;9.22;62.35;101503.00;4995263;28;96752;-34
2022/04/19 04:17:41;;;;;;;6.15;3.72;;;;;;;9.22;62.39;101502.13;4993095;28;97441;-34
2022/04/19 04:20:07;;;;;;;8.30;3.63;;;;;;;9.19;63.67;101513.09;4994162;28;99066;-34
2022/04/19 04:22:32;;;;;;;6.13;3.63;;;;;;;9.15;62.78;101509.63;4992808;28;96469;-34
2022/04/19 04:24:57;;;;;;;5.38;3.05;;;;;;;9.18;63.02;101519.47;4994855;28;96736;-34
2022/04/19 04:27:23;;;;;;;14.48;4.03;;;;;;;9.14;62.99;101516.00;4994124;28;99695;-34
2022/04/19 04:29:48;;;;;;;5.65;3.47;;;;;;;9.08;62.11;101513.56;4994445;28;99023;-34
2022/04/19 04:32:14;;;;;;;7.88;3.47;;;;;;;9.09;63.05;101524.31;4994331;28;96451;-35
2022/04/19 04:34:39;;;;;;;7.25;3.88;;;;;;;9.06;62.69;101519.06;4994474;28;96857;-34
2022/04/19 04:37:05;;;;;;;6.15;3.25;;;;;;;8.91;63.64;101504.41;4993503;28;120502;-34
2022/04/19 04:39:30;;;;;;;8.23;3.80;;;;;;;8.99;62.56;101535.63;4993074;28;101282;-34
2022/04/19 04:41:55;;;;;;;5.32;3.33;;;;;;;8.92;64.01;101527.75;4994546;28;96578;-34
2022/04/19 04:44:21;;;;;;;5.90;2.95;;;;;;;8.96;63.53;101535.72;4993576;28;116429;-34
2022/04/19 04:49:36;;;;;;;5.97;3.10;;;;;;;8.92;63.77;101529.59;4994217;28;97091;-34
2022/04/19 04:52:12;;;;;;;6.23;3.17;;;;;;;8.93;63.85;101529.50;4994528;28;96693;-34
2022/04/19 04:54:39;;;;;;;4.70;2.85;;;;;;;8.82;62.79;101521.03;4994207;28;96590;-34
2022/04/19 04:57:06;;;;;;;6.45;3.33;;;;;;;8.88;63.65;101538.78;4993984;28;97963;-34
2022/04/19 04:59:33;;;;;;;10.48;4.20;;;;;;;8.89;63.31;101535.13;4992108;28;101027;-34
2022/04/19 05:01:59;;;;;;;6.03;3.35;;;;;;;8.85;63.11;101531.69;4992614;28;96781;-34
2022/04/19 05:04:24;;;;;;;8.25;3.75;;;;;;;8.79;65.14;101522.97;4993100;28;96797;-33
2022/04/19 05:06:50;;;;;;;11.10;3.90;;;;;;;8.84;62.75;101529.94;4993364;28;99044;-34
2022/04/19 05:09:15;;;;;;;6.53;3.80;;;;;;;8.88;63.50;101536.94;4993746;28;97250;-34
2022/04/19 05:11:41;;;;;;;6.00;3.17;;;;;;;8.88;64.03;101531.53;4993338;28;96692;-34
2022/04/19 05:14:09;;;;;;;7.18;3.58;;;;;;;8.87;63.86;101532.50;4993492;28;96815;-34
2022/04/19 05:16:35;;;;;;;9.13;4.03;;;;;;;8.87;63.87;101529.78;4992260;28;100660;-34
2022/04/19 05:19:02;;;;;;;6.68;3.33;;;;;;;8.93;63.00;101536.75;4994906;28;100934;-33
2022/04/19 05:21:27;;;;;;;6.00;4.00;;;;;;;8.95;64.46;101545.66;4996023;28;96583;-34
2022/04/19 05:23:52;;;;;;;8.90;4.35;;;;;;;8.95;63.89;101542.09;4996256;28;117210;-34
2022/04/19 05:26:17;;;;;;;6.28;2.97;;;;;;;8.92;64.59;101540.41;4996735;28;99205;-34
2022/04/19 05:28:43;;;;;;;6.53;3.53;;;;;;;8.90;64.00;101535.06;4996198;28;118205;-34
2022/04/19 05:31:08;;;;;;;8.20;3.85;;;;;;;8.98;63.94;101548.22;4997187;28;96533;-34
2022/04/19 05:33:33;;;;;;;4.78;3.20;;;;;;;8.92;62.73;101537.69;4995698;28;96559;-34
2022/04/19 05:35:58;;;;;;;7.20;3.88;;;;;;;8.95;63.80;101534.00;4995313;28;126443;-34
2022/04/19 05:38:26;;;;;;;6.07;3.90;;;;;;;9.00;63.53;101549.03;4996019;28;114871;-34
2022/04/19 05:40:51;;;;;;;5.97;3.70;;;;;;;8.98;63.38;101534.72;4997005;28;96689;-34
2022/04/19 05:43:16;;;;;;;6.13;4.13;;;;;;;9.08;62.70;101551.41;4994403;28;116768;-34
2022/04/19 05:45:42;;;;;;;7.53;3.78;;;;;;;9.15;62.50;101561.00;4995917;28;98280;-34
2022/04/19 05:48:08;;;;;;;6.25;3.97;;;;;;;9.20;61.32;101550.88;4996597;28;97790;-34
2022/04/19 05:50:33;;;;;;;5.85;3.50;;;;;;;9.22;61.43;101537.28;4996817;28;96653;-34
2022/04/19 05:52:58;;;;;;;6.10;3.75;;;;;;;9.31;60.97;101544.97;4997268;28;96806;-34
2022/04/19 05:55:24;;;;;;;7.45;4.22;;;;;;;9.45;60.92;101560.59;4995668;28;126657;-34
2022/04/19 05:57:49;;;;;;;6.57;3.38;;;;;;;9.51;60.30;101553.06;4995174;28;125537;-34
2022/04/19 06:00:15;;;;;;;9.52;4.15;;;;;;;9.52;60.23;101540.44;4995982;28;97499;-34
2022/04/19 06:05:30;;;;;;;5.95;3.10;;;;;;;9.69;59.63;101556.75;4996669;28;97071;-34
2022/04/19 06:07:55;;;;;;;6.82;3.22;;;;;;;9.79;59.55;101546.38;4994927;28;127806;-34
2022/04/19 06:10:22;;;;;;;6.28;3.53;;;;;;;9.92;59.55;101566.50;4993668;28;96745;-35
2022/04/19 06:12:47;;;;;;;4.53;3.03;;;;;;;9.95;58.15;101562.75;4996216;28;96715;-34
2022/04/19 06:15:12;;;;;;;5.65;3.42;;;;;;;10.05;58.71;101569.47;4995410;28;121380;-34
2022/04/19 06:17:50;;;;;;;7.50;3.25;;;;;;;10.17;58.41;101566.19;4996681;28;97768;-34
2022/04/19 06:20:15;;;;;;;7.40;3.28;;;;;;;10.24;57.48;101560.47;4996510;28;96542;-34
2022/04/19 06:22:40;;;;;;;6.35;3.53;;;;;;;10.39;57.05;101562.47;4996396;28;96784;-34
2022/04/19 06:25:06;;;;;;;7.15;3.42;;;;;;;10.55;56.58;101570.72;4995087;28;98809;-34
2022/04/19 06:27:32;;;;;;;7.82;3.90;;;;;;;10.63;56.30;101568.50;4996170;28;97235;-34
2022/04/19 06:29:58;;;;;;;7.47;3.47;;;;;;;10.76;56.09;101563.34;4995969;28;96718;-34
2022/04/19 06:32:24;;;;;;;7.63;3.22;;;;;;;10.83;56.00;101560.22;4994824;28;96807;-34
2022/04/19 06:34:52;;;;;;;8.13;3.08;;;;;;;10.99;55.33;101568.47;4994543;28;100525;-34
2022/04/19 06:37:19;;;;;;;5.78;3.03;;;;;;;11.04;55.17;101555.53;4995710;28;99041;-35
2022/04/19 06:39:44;;;;;;;3.53;2.53;;;;;;;11.12;55.27;101563.25;4994652;28;96596;-34
2022/04/19 06:42:11;;;;;;;9.30;4.18;;;;;;;11.21;54.77;101567.34;4995379;28;116575;-34
2022/04/19 06:44:36;;;;;;;5.43;2.97;;;;;;;11.28;54.50;101563.34;4995773;28;98067;-34
2022/04/19 06:47:02;;;;;;;5.88;3.15;;;;;;;11.42;54.63;101578.88;4995623;28;99038;-34
2022/04/19 06:49:27;;;;;;;5.85;3.10;;;;;;;11.55;54.05;101581.81;4995644;28;96545;-34
2022/04/19 06:51:53;;;;;;;8.05;3.03;;;;;;;11.65;54.27;101578.50;4995919;28;96810;-34
2022/04/19 06:54:18;;;;;;;8.98;3.28;;;;;;;11.72;53.31;101579.03;4995280;28;99354;-34
2022/04/19 06:56:45;;;;;;;7.28;3.17;;;;;;;11.84;52.98;101578.38;4995345;28;99331;-34
2022/04/19 06:59:11;;;;;;;8.07;3.38;;;;;;;11.95;52.71;101585.97;4995973;28;96504;-34
2022/04/19 07:01:38;;;;;;;5.68;3.13;;;;;;;12.18;52.38;101592.84;4995747;28;96863;-34
2022/04/19 07:04:04;;;;;;;7.47;3.20;;;;;;;12.27;52.46;101592.28;4993947;28;100886;-34
2022/04/19 07:06:29;;;;;;;5.60;3.08;;;;;;;12.37;51.76;101598.09;4994656;28;117562;-34
2022/04/19 07:08:54;;;;;;;9.10;3.80;;;;;;;12.45;51.82;101579.50;4995743;28;96669;-35
2022/04/19 07:11:19;;;;;;;5.95;3.15;;;;;;;12.76;51.49;101602.19;4995366;28;100859;-35
2022/04/19 07:13:45;;;;;;;6.70;3.63;;;;;;;12.94;50.88;101598.38;4993720;28;127402;-34
2022/04/19 07:16:10;;;;;;;7.13;3.38;;;;;;;13.06;50.34;101599.50;4994249;28;126462;-35
2022/04/19 07:18:36;;;;;;;6.68;3.20;;;;;;;13.20;50.71;101581.44;4995397;28;96489;-35
2022/04/19 07:26:38;;;;;;;6.38;3.13;;;;;;;13.58;49.13;101587.28;4995485;28;96902;-34
2022/04/19 07:29:04;;;;;;;6.22;2.90;;;;;;;13.76;48.27;101596.16;4995524;28;96567;-34
2022/04/19 07:31:31;;;;;;;7.30;3.58;;;;;;;13.87;48.05;101592.75;4994200;28;96926;-34
2022/04/19 07:33:56;;;;;;;4.50;2.42;;;;;;;13.96;48.09;101589.44;4993419;28;98836;-34
2022/04/19 07:36:22;;;;;;;6.75;2.78;;;;;;;14.10;48.22;101592.16;4994956;28;97952;-34
2022/04/19 07:38:47;;;;;;;7.07;3.22;;;;;;;14.21;47.93;101602.38;4994560;28;104901;-34
2022/04/19 07:41:12;;;;;;;8.05;4.05;;;;;;;14.24;47.67;101594.84;4993504;28;116403;-34
2022/04/19 07:43:38;;;;;;;6.78;3.35;;;;;;;14.27;47.10;101588.31;4995019;28;97870;-34
2022/04/19 07:46:07;;;;;;;6.22;3.25;;;;;;;14.32;47.40;101591.63;4994895;28;97396;-35
2022/04/19 07:48:32;;;;;;;7.70;3.42;;;;;;;14.45;47.58;101589.84;4993618;28;96678;-34
2022/04/19 07:50:58;;;;;;;7.75;3.15;;;;;;;14.45;47.37;101589.84;4995159;28;96691;-34
2022/04/19 07:53:23;;;;;;;11.00;3.15;;;;;;;14.43;47.47;101591.81;4993734;28;126572;-34
2022/04/19 07:55:49;;;;;;;8.48;3.15;;;;;;;14.46;47.95;101588.00;4994131;28;126723;-34
2022/04/19 07:58:14;;;;;;;7.28;3.17;;;;;;;14.56;47.52;101589.19;4993469;28;96588;-34
2022/04/19 08:00:39;;;;;;;6.00;3.22;;;;;;;14.61;47.22;101584.31;4994844;28;96825;-34
2022/04/19 08:03:05;;;;;;;6.03;2.85;;;;;;;14.77;47.56;101577.81;4994133;28;97879;-34
2022/04/19 08:05:30;;;;;;;6.15;2.60;;;;;;;15.05;47.15;101602.22;4992128;28;126825;-34
2022/04/19 08:07:56;;;;;;;5.30;2.95;;;;;;;15.11;46.74;101586.41;4994098;28;103828;-34
2022/04/19 08:10:22;;;;;;;4.13;2.45;;;;;;;15.22;46.84;101581.97;4994383;28;96830;-34
2022/04/19 08:12:47;;;;;;;4.85;1.95;;;;;;;15.27;45.24;101579.78;4994046;28;116594;-34
2022/04/19 08:15:13;;;;;;;5.53;2.03;;;;;;;15.50;45.39;101589.09;4994302;28;99162;-35
2022/04/19 08:17:39;;;;;;;5.05;1.90;;;;;;;15.77;45.21;101584.53;4994901;28;96574;-34
2022/04/19 08:20:06;;;;;;;5.68;2.17;;;;;;;16.00;44.50;101585.63;4993589;28;96899;-34
2022/04/19 08:22:32;;;;;;;3.20;1.88;;;;;;;16.30;44.56;101588.84;4992820;28;101921;-34
2022/04/19 08:24:58;;;;;;;5.50;2.40;;;;;;;16.60;43.43;101586.66;4994402;28;97794;-34
2022/04/19 08:27:23;;;;;;;3.85;1.98;;;;;;;16.71;41.95;101589.47;4993983;28;96431;-34
2022/04/19 08:29:48;;;;;;;6.93;2.03;;;;;;;16.80;41.91;101590.66;4993758;28;117672;-34
2022/04/19 08:32:14;;;;;;;4.13;2.38;;;;;;;16.96;42.20;101581.16;4994359;28;97903;-34
2022/04/19 08:34:49;;;;;;;6.53;2.25;;;;;;;17.08;40.72;101579.34;4992787;28;101134;-34
2022/04/19 08:37:14;;;;;;;4.05;1.92;;;;;;;17.18;40.18;101579.50;4994110;28;109435;-35
2022/04/19 08:39:39;;;;;;;5.15;1.88;;;;;;;17.34;40.22;101590.13;4993510;28;116729;-34
2022/04/19 08:42:06;;;;;;;4.47;1.83;;;;;;;17.30;39.07;101594.97;4993195;28;118755;-34
2022/04/19 08:44:33;;;;;;;4.72;2.30;;;;;;;17.28;39.84;101588.75;4976215;28;100872;-35
2022/04/19 08:46:59;;;;;;;5.03;2.40;;;;;;;17.25;41.20;101578.03;4992985;28;96782;-34
2022/04/19 08:49:25;;;;;;;6.72;3.10;;;;;;;17.27;40.73;101592.47;4994545;28;96779;-34
2022/04/19 08:51:50;;;;;;;4.38;2.35;;;;;;;17.37;41.15;101590.75;4993315;28;99650;-35
2022/04/19 08:59:43;;;;;;;5.05;2.70;;;;;;;17.31;41.47;101590.38;4996072;28;96563;-34
2022/04/19 09:02:20;;;;;;;6.38;2.92;;;;;;;17.23;41.82;101580.00;4997134;28;97347;-34
2022/04/19 09:04:46;;;;;;;4.88;2.55;;;;;;;17.27;41.85;101584.25;4997363;28;97829;-34
2022/04/19 09:07:11;;;;;;;8.93;2.65;;;;;;;17.36;41.55;101588.16;4997123;28;96635;-34
2022/04/19 09:09:38;;;;;;;5.35;2.55;;;;;;;17.52;41.16;101576.84;4996554;28;116349;-34
2022/04/19 09:12:08;;;;;;;4.47;2.60;;;;;;;17.79;40.78;101577.38;4995719;28;101566;-34
2022/04/19 09:14:33;;;;;;;4.82;2.40;;;;;;;17.81;40.63;101578.16;4996829;28;99164;-34
2022/04/19 09:17:08;;;;;;;8.35;2.67;;;;;;;18.14;40.10;101573.69;4996846;28;96734;-34
2022/04/19 09:19:33;;;;;;;5.75;2.67;;;;;;;18.29;39.87;101581.66;4997227;28;96796;-34
2022/04/19 09:22:00;;;;;;;6.63;2.47;;;;;;;18.44;40.44;101566.66;4996504;28;99599;-34
2022/04/19 09:24:27;;;;;;;6.93;2.42;;;;;;;18.64;39.61;101573.22;4997352;28;97362;-35
2022/04/19 09:26:53;;;;;;;3.90;2.05;;;;;;;18.86;38.58;101564.94;4995941;28;96581;-34
2022/04/19 09:29:26;;;;;;;5.70;2.80;;;;;;;18.93;38.95;101564.44;4983464;28;96842;-34
2022/04/19 09:31:55;;;;;;;4.43;2.25;;;;;;;18.94;38.39;101578.00;4975596;28;100962;-35
2022/04/19 09:34:29;;;;;;;8.73;2.67;;;;;;;18.92;39.39;101563.53;4975827;28;100808;-34
2022/04/19 09:37:11;;;;;;;5.22;2.33;;;;;;;18.89;39.16;101563.81;4977583;28;96521;-34
2022/04/19 09:39:38;;;;;;;5.70;2.65;;;;;;;18.93;39.07;101568.03;4975918;28;96997;-34
2022/04/19 09:42:09;;;;;;;3.50;1.83;;;;;;;18.62;37.37;101556.88;4974917;28;100053;-34
2022/04/19 09:44:38;;;;;;;4.63;2.17;;;;;;;18.89;38.00;101561.91;4975489;28;100779;-34
2022/04/19 09:47:13;;;;;;;5.78;2.08;;;;;;;19.19;38.04;101562.19;4975524;28;96705;-34
2022/04/19 09:49:46;;;;;;;5.20;2.40;;;;;;;19.41;37.38;101564.78;4977275;28;96728;-35
2022/04/19 09:52:21;;;;;;;3.95;2.00;;;;;;;19.59;37.26;101564.16;4975259;28;101864;-34
2022/04/19 09:55:00;;;;;;;4.28;1.95;;;;;;;19.55;35.77;101557.22;4976639;28;98036;-34
2022/04/19 09:57:25;;;;;;;9.40;3.00;;;;;;;19.68;36.72;101555.13;4976855;28;96582;-35
2022/04/19 09:59:52;;;;;;;4.57;2.10;;;;;;;19.79;36.61;101555.06;4976433;28;116819;-35
2022/04/19 10:10:31;;;;;;;7.97;2.85;;;;;;;20.23;35.85;101552.91;4976647;28;96702;-34
2022/04/19 10:12:57;;;;;;;6.80;2.13;;;;;;;20.17;35.05;101558.13;4976311;28;97871;-35
2022/04/19 10:15:23;;;;;;;6.13;2.60;;;;;;;20.22;34.92;101544.81;4974885;28;101168;-35
2022/04/19 10:17:49;;;;;;;7.03;2.65;;;;;;;20.48;35.69;101559.78;4976421;28;96546;-35
2022/04/19 10:20:16;;;;;;;5.35;2.35;;;;;;;20.69;35.10;101554.22;4976697;28;96530;-35
2022/04/19 10:22:48;;;;;;;4.93;2.28;;;;;;;20.79;34.33;101563.34;4974796;28;100829;-35
2022/04/19 10:25:14;;;;;;;4.45;1.92;;;;;;;20.94;34.21;101543.63;4975320;28;97801;-35
2022/04/19 10:27:40;;;;;;;5.45;2.55;;;;;;;20.82;32.51;101550.31;4975082;28;96776;-35
2022/04/19 10:30:06;;;;;;;7.35;2.33;;;;;;;20.76;34.78;101547.13;4976296;28;96834;-35
2022/04/19 10:32:33;;;;;;;5.28;2.33;;;;;;;20.70;34.69;101552.31;4974153;28;98012;-34
2022/04/19 10:35:05;;;;;;;9.57;2.90;;;;;;;20.60;32.42;101554.19;4974242;28;101041;-35
2022/04/19 10:37:32;;;;;;;5.38;2.28;;;;;;;20.71;34.16;101538.41;4974827;28;96468;-35
2022/04/19 10:39:57;;;;;;;4.07;2.05;;;;;;;20.88;33.96;101556.13;4974880;28;96922;-35
2022/04/19 10:42:40;;;;;;;8.60;2.65;;;;;;;20.96;32.08;101544.38;4975590;28;99544;-35
2022/04/19 10:45:11;;;;;;;6.53;2.28;;;;;;;21.05;33.03;101557.28;4974472;28;99224;-34
2022/04/19 10:47:57;;;;;;;5.95;2.25;;;;;;;21.15;31.07;101566.38;4975629;28;98713;-35
2022/04/19 10:50:32;;;;;;;4.38;2.13;;;;;;;21.40;32.21;101566.81;4976404;28;96814;-35
2022/04/19 10:53:03;;;;;;;4.75;2.25;;;;;;;21.55;32.02;101546.06;4974136;28;100662;-35
2022/04/19 10:55:30;;;;;;;6.30;2.30;;;;;;;21.71;31.72;101541.78;4975665;28;99316;-35
2022/04/19 10:58:23;;;;;;;9.52;2.53;;;;;;;21.84;32.82;101543.19;4973987;28;96736;-35
2022/04/19 11:01:00;;;;;;;7.80;2.25;;;;;;;22.09;30.84;101539.91;4975935;28;96627;-35
2022/04/19 11:03:25;;;;;;;6.18;2.28;;;;;;;22.24;30.86;101547.56;4974057;28;100787;-35
2022/04/19 11:05:58;;;;;;;5.77;2.07;;;;;;;22.02;30.36;101546.03;4975401;28;109595;-35
2022/04/19 11:08:26;;;;;;;5.47;2.13;;;;;;;21.90;29.01;101546.38;4957818;28;96754;-35
2022/04/19 11:11:20;;;;;;;5.78;2.08;;;;;;;21.92;30.17;101547.94;4975122;28;99163;-35
2022/04/19 11:14:15;;;;;;;5.78;2.00;;;;;;;22.32;29.48;101541.25;4973912;28;101178;-35
2022/04/19 11:16:40;;;;;;;6.13;2.70;;;;;;;22.36;30.15;101548.22;4973442;28;100745;-35
2022/04/19 11:19:14;;;;;;;8.75;2.85;;;;;;;22.54;30.40;101544.59;4975583;28;97066;-35
2022/04/19 11:21:52;;;;;;;7.13;3.15;;;;;;;22.51;30.45;101536.66;4974327;28;96770;-35
2022/04/19 11:24:55;;;;;;;5.13;2.22;;;;;;;22.32;29.33;101554.19;4973295;28;99001;-35
2022/04/19 11:27:20;;;;;;;5.43;2.22;;;;;;;22.24;29.71;101524.63;4975376;28;97737;-35
2022/04/19 11:29:50;;;;;;;6.68;2.53;;;;;;;22.33;29.21;101536.59;4975615;28;96611;-35
2022/04/19 11:32:21;;;;;;;8.98;3.05;;;;;;;22.54;29.10;101539.94;4974098;28;96632;-35
2022/04/19 11:35:02;;;;;;;4.83;2.30;;;;;;;22.65;30.40;101538.88;4973536;28;100906;-34
2022/04/19 11:37:32;;;;;;;8.88;2.80;;;;;;;22.83;30.18;101533.34;4973627;28;101179;-35
2022/04/19 11:48:26;;;;;;;;;;;;;;;22.88;29.51;101531.84;4975857;28;96926;-35
2022/04/19 11:50:52;;;;;;;6.00;2.42;;;;;;;22.89;30.68;101519.75;4975205;28;96624;-35
2022/04/19 11:53:26;;;;;;;6.82;2.17;;;;;;;23.03;30.11;101531.31;4973657;28;96846;-35
2022/04/19 11:55:59;;;;;;;7.72;2.65;;;;;;;22.93;30.02;101522.19;4974016;28;127129;-35
2022/04/19 11:58:24;;;;;;;7.85;2.63;;;;;;;22.80;30.60;101517.09;4973376;28;100885;-35
2022/04/19 12:01:04;;;;;;;6.20;2.55;;;;;;;22.80;30.06;101520.72;4975026;28;96752;-35
2022/04/19 12:03:32;;;;;;;6.53;2.15;;;;;;;22.69;29.96;101523.69;4975120;28;96552;-35
2022/04/19 12:06:27;;;;;;;6.30;2.75;;;;;;;22.74;29.57;101520.47;4973308;28;100887;-35